Terminal Aerodrome Forecast
Issued by NWS

Home | Current Version | Previous Version | Text Only | Print | Product List | Glossary On
Versions: 1 2 3 4 5 6 7 8 9 10 11 12 13 14
000
FTUS43 KILX 290521
TAFBMI
TAF
KBMI 290521Z 2906/3006 15006KT P6SM BKN120
     FM290700 16006KT P6SM VCSH SCT080 OVC100
     FM292200 19009KT P6SM OVC050=

USA.gov is the U.S. government's official web portal to all federal, state and local government web resources and services.